Time,TemperatureF,DewpointF,PressureIn,WindDirection,WindDirectionDegrees,WindSpeedMPH,WindSpeedGustMPH,Humidity,HourlyPrecipIn,Conditions,Clouds,dailyrainin,SoftwareType,DateUTC
2013-01-03 00:03:00,30.0,-99.9,-100.00,WSW,248,9.0,13.0,-999,0.00,,,0.00,,2013-01-03 06:03:00,
2013-01-03 00:12:00,30.0,-99.9,-100.00,WSW,256,9.0,13.0,-999,0.00,,,-99.99,,2013-01-03 06:12:00,
2013-01-03 00:22:00,30.0,-99.9,-100.00,WSW,256,9.0,13.0,-999,0.00,,,-99.99,,2013-01-03 06:22:00,
2013-01-03 00:33:00,30.0,-99.9,-100.00,WSW,250,9.0,13.0,-999,0.00,,,0.00,,2013-01-03 06:33:00,
2013-01-03 00:43:00,30.0,-99.9,-100.00,WSW,250,9.0,13.0,-999,0.00,,,0.00,,2013-01-03 06:43:00,
2013-01-03 00:53:00,30.0,-99.9,-100.00,WSW,250,9.0,13.0,-999,0.00,,,0.00,,2013-01-03 06:53:00,
2013-01-03 01:02:00,30.0,-99.9,-100.00,WSW,250,9.0,13.0,-999,0.00,,,0.00,,2013-01-03 07:02:00,
2013-01-03 01:12:00,30.0,-99.9,-100.00,WSW,258,9.0,10.0,-999,0.00,,,0.00,,2013-01-03 07:12:00,
2013-01-03 01:22:00,30.0,-99.9,-100.00,WSW,258,9.0,10.0,-999,0.00,,,0.00,,2013-01-03 07:22:00,
2013-01-03 01:33:00,30.0,-99.9,-100.00,WSW,257,8.0,10.0,-999,0.00,,,0.00,,2013-01-03 07:33:00,
2013-01-03 01:43:00,30.0,-99.9,-100.00,WSW,257,8.0,10.0,-999,0.00,,,0.00,,2013-01-03 07:43:00,
2013-01-03 01:53:00,30.0,-99.9,-100.00,WSW,257,8.0,10.0,-999,0.00,,,0.00,,2013-01-03 07:53:00,
2013-01-03 02:02:00,30.0,-99.9,-100.00,WSW,257,8.0,10.0,-999,0.00,,,0.00,,2013-01-03 08:02:00,
2013-01-03 02:12:00,30.0,-99.9,-100.00,West,262,8.0,11.0,-999,0.00,,,0.00,,2013-01-03 08:12:00,
2013-01-03 02:23:00,30.0,-99.9,-100.00,West,262,8.0,11.0,-999,0.00,,,0.00,,2013-01-03 08:23:00,
2013-01-03 02:33:00,30.0,-99.9,-100.00,West,262,8.0,11.0,-999,0.00,,,0.00,,2013-01-03 08:33:00,
2013-01-03 02:43:00,30.0,-99.9,-100.00,West,265,8.0,11.0,-999,0.00,,,0.00,,2013-01-03 08:43:00,
2013-01-03 02:53:00,30.0,-99.9,-100.00,West,265,8.0,11.0,-999,0.00,,,0.00,,2013-01-03 08:53:00,
2013-01-03 03:03:00,30.0,-99.9,-100.00,West,265,8.0,11.0,-999,0.00,,,0.00,,2013-01-03 09:03:00,
2013-01-03 03:12:00,31.0,-99.9,-100.00,West,270,8.0,11.0,-999,0.00,,,0.00,,2013-01-03 09:12:00,
2013-01-03 03:23:00,31.0,-99.9,-100.00,West,270,8.0,11.0,-999,0.00,,,0.00,,2013-01-03 09:23:00,
2013-01-03 03:34:00,31.0,-99.9,-100.00,West,268,10.0,13.0,-999,0.00,,,0.00,,2013-01-03 09:34:00,
2013-01-03 03:43:00,31.0,-99.9,-100.00,West,268,10.0,13.0,-999,0.00,,,0.00,,2013-01-03 09:43:00,
2013-01-03 03:53:00,31.0,-99.9,-100.00,West,268,10.0,13.0,-999,0.00,,,0.00,,2013-01-03 09:53:00,
2013-01-03 04:02:00,31.0,-99.9,-100.00,West,268,10.0,13.0,-999,0.00,,,0.00,,2013-01-03 10:02:00,
2013-01-03 04:12:00,31.0,-99.9,-100.00,West,277,9.0,11.0,-999,0.00,,,0.00,,2013-01-03 10:12:00,
2013-01-03 04:23:00,31.0,-99.9,-100.00,West,277,9.0,11.0,-999,0.00,,,0.00,,2013-01-03 10:23:00,
2013-01-03 04:33:00,31.0,-99.9,-100.00,West,277,9.0,11.0,-999,0.00,,,0.00,,2013-01-03 10:33:00,
2013-01-03 04:43:00,31.0,-99.9,-100.00,West,274,9.0,12.0,-999,0.00,,,0.00,,2013-01-03 10:43:00,
2013-01-03 04:53:00,31.0,-99.9,-100.00,West,274,9.0,12.0,-999,0.00,,,0.00,,2013-01-03 10:53:00,
2013-01-03 05:03:00,31.0,-99.9,-100.00,West,274,9.0,12.0,-999,0.00,,,0.00,,2013-01-03 11:03:00,
2013-01-03 05:12:00,31.0,-99.9,-100.00,West,277,9.0,14.0,-999,0.00,,,0.00,,2013-01-03 11:12:00,
2013-01-03 05:23:00,31.0,-99.9,-100.00,West,277,9.0,14.0,-999,0.00,,,0.00,,2013-01-03 11:23:00,
2013-01-03 05:34:00,30.0,-99.9,-100.00,West,271,8.0,10.0,-999,0.00,,,0.00,,2013-01-03 11:34:00,
2013-01-03 05:40:00,30.0,-99.9,-100.00,West,276,8.0,15.0,-999,0.00,,,0.00,,2013-01-03 11:40:00,
2013-01-03 05:43:00,30.0,-99.9,-100.00,West,271,8.0,10.0,-999,0.00,,,0.00,,2013-01-03 11:43:00,
2013-01-03 05:53:00,30.0,-99.9,-100.00,West,271,8.0,10.0,-999,0.00,,,0.00,,2013-01-03 11:53:00,
2013-01-03 06:03:00,30.0,-99.9,-100.00,West,271,8.0,10.0,-999,0.00,,,0.00,,2013-01-03 12:03:00,
2013-01-03 06:12:00,30.0,-99.9,-100.00,West,276,8.0,15.0,-999,0.00,,,0.00,,2013-01-03 12:12:00,
2013-01-03 06:23:00,30.0,-99.9,-100.00,West,276,8.0,15.0,-999,0.00,,,0.00,,2013-01-03 12:23:00,
2013-01-03 06:33:00,30.0,-99.9,-100.00,West,276,8.0,15.0,-999,0.00,,,0.00,,2013-01-03 12:33:00,
2013-01-03 07:13:00,30.0,-99.9,-100.00,West,270,5.0,7.0,-999,0.00,,,0.00,,2013-01-03 13:13:00,
2013-01-03 07:22:00,30.0,-99.9,-100.00,West,270,5.0,7.0,-999,0.00,,,0.00,,2013-01-03 13:22:00,
2013-01-03 07:33:00,30.0,-99.9,-100.00,West,270,5.0,7.0,-999,0.00,,,0.00,,2013-01-03 13:33:00,
2013-01-03 07:43:00,30.0,-99.9,-100.00,West,281,7.0,9.0,-999,0.00,,,0.00,,2013-01-03 13:43:00,
2013-01-03 07:53:00,30.0,-99.9,-100.00,West,281,7.0,9.0,-999,0.00,,,0.00,,2013-01-03 13:53:00,
2013-01-03 08:03:00,30.0,-99.9,-100.00,West,281,7.0,9.0,-999,0.00,,,0.00,,2013-01-03 14:03:00,
2013-01-03 08:12:00,30.0,-99.9,-100.00,WNW,284,9.0,12.0,-999,0.00,,,0.00,,2013-01-03 14:12:00,
2013-01-03 08:23:00,30.0,-99.9,-100.00,WNW,284,9.0,12.0,-999,0.00,,,0.00,,2013-01-03 14:23:00,
2013-01-03 08:33:00,30.0,-99.9,-100.00,WNW,286,9.0,10.0,-999,0.00,,,0.00,,2013-01-03 14:33:00,
2013-01-03 08:43:00,30.0,-99.9,-100.00,WNW,286,9.0,10.0,-999,0.00,,,0.00,,2013-01-03 14:43:00,
2013-01-03 08:53:00,30.0,-99.9,-100.00,WNW,286,9.0,10.0,-999,0.00,,,0.00,,2013-01-03 14:53:00,
2013-01-03 09:03:00,30.0,-99.9,-100.00,WNW,286,9.0,10.0,-999,0.00,,,0.00,,2013-01-03 15:03:00,
2013-01-03 09:13:00,30.0,-99.9,-100.00,WNW,289,9.0,11.0,-999,0.00,,,0.00,,2013-01-03 15:13:00,
2013-01-03 09:23:00,30.0,-99.9,-100.00,WNW,289,9.0,11.0,-999,0.00,,,0.00,,2013-01-03 15:23:00,
2013-01-03 09:34:00,30.0,-99.9,-100.00,WNW,298,14.0,16.0,-999,0.00,,,0.00,,2013-01-03 15:34:00,
2013-01-03 09:43:00,30.0,-99.9,-100.00,WNW,298,14.0,16.0,-999,0.00,,,0.00,,2013-01-03 15:43:00,
2013-01-03 09:53:00,30.0,-99.9,-100.00,WNW,298,14.0,16.0,-999,0.00,,,0.00,,2013-01-03 15:53:00,
2013-01-03 10:03:00,30.0,-99.9,-100.00,WNW,298,14.0,16.0,-999,0.00,,,0.00,,2013-01-03 16:03:00,
2013-01-03 10:13:00,27.0,-99.9,-100.00,NW,318,15.0,18.0,-999,0.00,,,0.00,,2013-01-03 16:13:00,
2013-01-03 10:23:00,27.0,-99.9,-100.00,NW,318,15.0,18.0,-999,0.00,,,0.00,,2013-01-03 16:23:00,
2013-01-03 10:34:00,25.0,-99.9,-100.00,NW,322,18.0,21.0,-999,0.00,,,0.00,,2013-01-03 16:34:00,
2013-01-03 10:43:00,25.0,-99.9,-100.00,NW,322,18.0,21.0,-999,0.00,,,0.00,,2013-01-03 16:43:00,
2013-01-03 10:53:00,25.0,-99.9,-100.00,NW,322,18.0,21.0,-999,0.00,,,0.00,,2013-01-03 16:53:00,
2013-01-03 11:03:00,25.0,-99.9,-100.00,NW,322,18.0,21.0,-999,0.00,,,0.00,,2013-01-03 17:03:00,
2013-01-03 11:13:00,25.0,-99.9,-100.00,NW,312,13.0,15.0,-999,0.00,,,0.00,,2013-01-03 17:13:00,
2013-01-03 11:23:00,25.0,-99.9,-100.00,NW,312,13.0,15.0,-999,0.00,,,0.00,,2013-01-03 17:23:00,
2013-01-03 11:33:00,25.0,-99.9,-100.00,NW,312,13.0,15.0,-999,0.00,,,0.00,,2013-01-03 17:33:00,
2013-01-03 11:43:00,25.0,-99.9,-100.00,WNW,303,14.0,17.0,-999,0.00,,,0.00,,2013-01-03 17:43:00,
2013-01-03 11:53:00,25.0,-99.9,-100.00,WNW,303,14.0,17.0,-999,0.00,,,0.00,,2013-01-03 17:53:00,
2013-01-03 12:04:00,25.0,-99.9,-100.00,WNW,303,14.0,17.0,-999,0.00,,,0.00,,2013-01-03 18:04:00,
2013-01-03 12:13:00,26.0,-99.9,-100.00,WNW,287,15.0,18.0,-999,0.00,,,0.00,,2013-01-03 18:13:00,
2013-01-03 12:23:00,26.0,-99.9,-100.00,WNW,287,15.0,18.0,-999,0.00,,,0.00,,2013-01-03 18:23:00,
2013-01-03 12:33:00,26.0,-99.9,-100.00,WNW,301,16.0,21.0,-999,0.00,,,0.00,,2013-01-03 18:33:00,
2013-01-03 12:43:00,26.0,-99.9,-100.00,WNW,301,16.0,21.0,-999,0.00,,,0.00,,2013-01-03 18:43:00,
2013-01-03 12:54:00,26.0,-99.9,-100.00,WNW,301,16.0,21.0,-999,0.00,,,0.00,,2013-01-03 18:54:00,
2013-01-03 13:03:00,26.0,-99.9,-100.00,WNW,301,16.0,21.0,-999,0.00,,,0.00,,2013-01-03 19:03:00,
2013-01-03 13:13:00,26.0,-99.9,-100.00,NW,308,12.0,15.0,-999,0.00,,,0.00,,2013-01-03 19:13:00,
2013-01-03 13:57:00,26.0,-99.9,-100.00,WNW,300,14.0,22.0,-999,0.00,,,0.00,,2013-01-03 19:57:00,
2013-01-03 14:03:00,26.0,-99.9,-100.00,WNW,300,14.0,22.0,-999,0.00,,,0.00,,2013-01-03 20:03:00,
2013-01-03 14:13:00,26.0,-99.9,-100.00,WNW,296,13.0,17.0,-999,0.00,,,0.00,,2013-01-03 20:13:00,
2013-01-03 14:23:00,26.0,-99.9,-100.00,WNW,296,13.0,17.0,-999,0.00,,,0.00,,2013-01-03 20:23:00,
2013-01-03 14:33:00,25.0,-99.9,-100.00,WNW,301,14.0,18.0,-999,0.00,,,0.00,,2013-01-03 20:33:00,
2013-01-03 14:43:00,25.0,-99.9,-100.00,WNW,301,14.0,18.0,-999,0.00,,,0.00,,2013-01-03 20:43:00,
2013-01-03 14:53:00,25.0,-99.9,-100.00,WNW,301,14.0,18.0,-999,0.00,,,0.00,,2013-01-03 20:53:00,
2013-01-03 15:03:00,25.0,-99.9,-100.00,WNW,301,14.0,18.0,-999,0.00,,,0.00,,2013-01-03 21:03:00,
2013-01-03 15:13:00,25.0,-99.9,-100.00,WNW,293,12.0,16.0,-999,0.00,,,0.00,,2013-01-03 21:13:00,
2013-01-03 15:23:00,25.0,-99.9,-100.00,WNW,293,12.0,16.0,-999,0.00,,,0.00,,2013-01-03 21:23:00,
2013-01-03 15:38:00,25.0,-99.9,-100.00,West,271,12.0,16.0,-999,0.00,,,0.00,,2013-01-03 21:38:00,
2013-01-03 15:51:00,25.0,-99.9,-100.00,West,271,12.0,16.0,-999,0.00,,,0.00,,2013-01-03 21:51:00,
2013-01-03 16:03:00,25.0,-99.9,-100.00,West,271,12.0,16.0,-999,0.00,,,0.00,,2013-01-03 22:03:00,
2013-01-03 16:12:00,24.0,-99.9,-100.00,WNW,293,14.0,21.0,-999,0.00,,,0.00,,2013-01-03 22:12:00,
2013-01-03 16:23:00,24.0,-99.9,-100.00,WNW,293,14.0,21.0,-999,0.00,,,0.00,,2013-01-03 22:23:00,
2013-01-03 16:33:00,24.0,-99.9,-100.00,WNW,293,14.0,21.0,-999,0.00,,,0.00,,2013-01-03 22:33:00,
2013-01-03 16:43:00,24.0,-99.9,-100.00,WNW,292,11.0,14.0,-999,0.00,,,0.00,,2013-01-03 22:43:00,
2013-01-03 16:53:00,24.0,-99.9,-100.00,WNW,292,11.0,14.0,-999,0.00,,,0.00,,2013-01-03 22:53:00,
2013-01-03 17:03:00,24.0,-99.9,-100.00,WNW,292,11.0,14.0,-999,0.00,,,0.00,,2013-01-03 23:03:00,
2013-01-03 17:13:00,23.0,-99.9,-100.00,WNW,289,11.0,15.0,-999,0.00,,,0.00,,2013-01-03 23:13:00,
2013-01-03 17:23:00,23.0,-99.9,-100.00,WNW,289,11.0,15.0,-999,0.00,,,0.00,,2013-01-03 23:23:00,
2013-01-03 17:33:00,23.0,-99.9,-100.00,WNW,289,11.0,15.0,-999,0.00,,,0.00,,2013-01-03 23:33:00,
2013-01-03 17:43:00,22.0,-99.9,-100.00,WNW,303,10.0,12.0,-999,0.00,,,0.00,,2013-01-03 23:43:00,
2013-01-03 17:53:00,22.0,-99.9,-100.00,WNW,303,10.0,12.0,-999,0.00,,,0.00,,2013-01-03 23:53:00,
2013-01-03 18:03:00,22.0,-99.9,-100.00,WNW,303,10.0,12.0,-999,0.00,,,0.00,,2013-01-04 00:03:00,
2013-01-03 18:13:00,21.0,-99.9,-100.00,WNW,296,12.0,14.0,-999,0.00,,,0.00,,2013-01-04 00:13:00,
2013-01-03 18:23:00,21.0,-99.9,-100.00,WNW,296,12.0,14.0,-999,0.00,,,0.00,,2013-01-04 00:23:00,
2013-01-03 18:33:00,20.0,-99.9,-100.00,WNW,293,13.0,17.0,-999,0.00,,,0.00,,2013-01-04 00:33:00,
2013-01-03 18:43:00,20.0,-99.9,-100.00,WNW,293,13.0,17.0,-999,0.00,,,0.00,,2013-01-04 00:43:00,
2013-01-03 18:53:00,20.0,-99.9,-100.00,WNW,293,13.0,17.0,-999,0.00,,,0.00,,2013-01-04 00:53:00,
2013-01-03 19:03:00,20.0,-99.9,-100.00,WNW,293,13.0,17.0,-999,0.00,,,0.00,,2013-01-04 01:03:00,
2013-01-03 19:13:00,19.0,-99.9,-100.00,WNW,292,12.0,15.0,-999,0.00,,,0.00,,2013-01-04 01:13:00,
2013-01-03 19:22:00,19.0,-99.9,-100.00,WNW,292,12.0,15.0,-999,0.00,,,0.00,,2013-01-04 01:22:00,
2013-01-03 19:33:00,18.0,-99.9,-100.00,WNW,292,11.0,13.0,-999,0.00,,,0.00,,2013-01-04 01:33:00,
2013-01-03 19:43:00,18.0,-99.9,-100.00,WNW,292,11.0,13.0,-999,0.00,,,0.00,,2013-01-04 01:43:00,
2013-01-03 19:53:00,18.0,-99.9,-100.00,WNW,292,11.0,13.0,-999,0.00,,,0.00,,2013-01-04 01:53:00,
2013-01-03 20:02:00,18.0,-99.9,-100.00,WNW,292,11.0,13.0,-999,0.00,,,0.00,,2013-01-04 02:02:00,
2013-01-03 20:12:00,17.0,-99.9,-100.00,WNW,291,11.0,12.0,-999,0.00,,,0.00,,2013-01-04 02:12:00,
2013-01-03 20:23:00,17.0,-99.9,-100.00,WNW,291,11.0,12.0,-999,0.00,,,0.00,,2013-01-04 02:23:00,
2013-01-03 20:33:00,17.0,-99.9,-100.00,WNW,287,9.0,11.0,-999,0.00,,,0.00,,2013-01-04 02:33:00,
2013-01-03 20:43:00,17.0,-99.9,-100.00,WNW,287,9.0,11.0,-999,0.00,,,0.00,,2013-01-04 02:43:00,
2013-01-03 20:53:00,17.0,-99.9,-100.00,WNW,287,9.0,11.0,-999,0.00,,,0.00,,2013-01-04 02:53:00,
2013-01-03 21:03:00,17.0,-99.9,-100.00,WNW,287,9.0,11.0,-999,0.00,,,0.00,,2013-01-04 03:03:00,
2013-01-03 21:12:00,16.0,-99.9,-100.00,WNW,284,9.0,11.0,-999,0.00,,,0.00,,2013-01-04 03:12:00,
2013-01-03 21:23:00,16.0,-99.9,-100.00,WNW,284,9.0,11.0,-999,0.00,,,0.00,,2013-01-04 03:23:00,
2013-01-03 21:33:00,16.0,-99.9,-100.00,WNW,283,9.0,12.0,-999,0.00,,,0.00,,2013-01-04 03:33:00,
2013-01-03 21:43:00,16.0,-99.9,-100.00,WNW,283,9.0,12.0,-999,0.00,,,0.00,,2013-01-04 03:43:00,
2013-01-03 21:53:00,16.0,-99.9,-100.00,WNW,283,9.0,12.0,-999,0.00,,,0.00,,2013-01-04 03:53:00,
2013-01-03 22:02:00,16.0,-99.9,-100.00,WNW,283,9.0,12.0,-999,0.00,,,0.00,,2013-01-04 04:02:00,
2013-01-03 22:12:00,16.0,-99.9,-100.00,West,276,7.0,10.0,-999,0.00,,,0.00,,2013-01-04 04:12:00,
2013-01-03 22:22:00,16.0,-99.9,-100.00,West,276,7.0,10.0,-999,0.00,,,0.00,,2013-01-04 04:22:00,
2013-01-03 22:33:00,15.0,-99.9,-100.00,West,260,5.0,5.0,-999,0.00,,,0.00,,2013-01-04 04:33:00,
2013-01-03 22:42:00,15.0,-99.9,-100.00,West,260,5.0,5.0,-999,0.00,,,0.00,,2013-01-04 04:42:00,
2013-01-03 22:53:00,15.0,-99.9,-100.00,West,260,5.0,5.0,-999,0.00,,,0.00,,2013-01-04 04:53:00,
2013-01-03 23:04:00,15.0,-99.9,-100.00,West,260,5.0,5.0,-999,0.00,,,0.00,,2013-01-04 05:04:00,
2013-01-03 23:12:00,15.0,-99.9,-100.00,West,265,5.0,7.0,-999,0.00,,,0.00,,2013-01-04 05:12:00,
2013-01-03 23:22:00,15.0,-99.9,-100.00,West,265,5.0,7.0,-999,0.00,,,0.00,,2013-01-04 05:22:00,
2013-01-03 23:33:00,14.0,-99.9,-100.00,WSW,257,7.0,10.0,-999,0.00,,,0.00,,2013-01-04 05:33:00,
2013-01-03 23:43:00,14.0,-99.9,-100.00,WSW,257,7.0,10.0,-999,0.00,,,0.00,,2013-01-04 05:43:00,
2013-01-03 23:53:00,14.0,-99.9,-100.00,WSW,257,7.0,10.0,-999,0.00,,,0.00,,2013-01-04 05:53:00,